createdAt,value
2019-03-08T00:05:34.720Z,1.40
2019-03-08T00:11:39.458Z,1.00
2019-03-08T00:17:44.424Z,1.40
2019-03-08T00:23:49.636Z,1.00
2019-03-08T00:29:54.183Z,1.43
2019-03-08T00:35:59.497Z,1.10
2019-03-08T00:42:04.507Z,1.17
2019-03-08T00:48:09.087Z,1.13
2019-03-08T00:54:15.340Z,1.00
2019-03-08T01:00:23.781Z,0.97
2019-03-08T01:06:28.771Z,0.87
2019-03-08T01:12:33.345Z,0.93
2019-03-08T01:18:38.177Z,0.90
2019-03-08T01:24:42.774Z,1.10
2019-03-08T01:30:47.716Z,1.20
2019-03-08T01:36:52.827Z,1.10
2019-03-08T01:42:57.470Z,0.90
2019-03-08T01:49:02.227Z,1.03
2019-03-08T01:55:08.084Z,0.93
2019-03-08T02:01:12.701Z,1.20
2019-03-08T02:07:17.364Z,1.10
2019-03-08T02:13:21.993Z,0.90
2019-03-08T02:19:26.579Z,0.87
2019-03-08T02:25:31.140Z,1.10
2019-03-08T02:31:35.731Z,1.13
2019-03-08T02:37:40.321Z,1.17
2019-03-08T02:43:46.687Z,0.90
2019-03-08T02:49:51.457Z,1.03
2019-03-08T02:55:56.024Z,0.80
2019-03-08T03:02:00.580Z,1.30
2019-03-08T03:08:05.296Z,1.30
2019-03-08T03:14:09.895Z,1.13
2019-03-08T03:20:17.103Z,1.03
2019-03-08T03:26:21.874Z,0.97
2019-03-08T03:32:26.536Z,0.90
2019-03-08T03:38:31.249Z,1.17
2019-03-08T03:44:35.836Z,1.00
2019-03-08T03:50:40.544Z,1.20
2019-03-08T03:56:45.238Z,1.00
2019-03-08T04:02:49.980Z,0.97
2019-03-08T04:08:54.629Z,1.20
2019-03-08T04:14:59.172Z,1.00
2019-03-08T04:21:03.806Z,0.93
2019-03-08T04:27:08.711Z,1.07
2019-03-08T04:33:13.790Z,1.20
2019-03-08T04:39:18.526Z,1.00
2019-03-08T04:45:23.498Z,0.90
2019-03-08T04:51:28.259Z,1.30
2019-03-08T04:57:32.805Z,1.10
2019-03-08T05:03:37.493Z,1.00
2019-03-08T05:09:42.433Z,1.10
2019-03-08T05:15:46.987Z,0.90
2019-03-08T05:21:51.676Z,1.07
2019-03-08T05:27:56.280Z,0.80
2019-03-08T05:34:00.933Z,1.00
2019-03-08T05:40:09.868Z,1.50
2019-03-08T05:46:14.703Z,1.27
2019-03-08T05:52:19.562Z,1.87
2019-03-08T05:58:24.130Z,1.40
2019-03-08T06:04:28.748Z,1.43
2019-03-08T06:10:35.402Z,1.60
2019-03-08T06:16:40.094Z,2.50
2019-03-08T06:22:45.146Z,1.73
2019-03-08T06:28:50.308Z,2.33
2019-03-08T06:34:54.859Z,2.50
2019-03-08T06:40:59.533Z,2.37
2019-03-08T06:47:04.190Z,2.53
2019-03-08T06:53:08.816Z,3.27
2019-03-08T06:59:17.776Z,2.60
2019-03-08T07:05:22.421Z,2.70
2019-03-08T07:11:27.228Z,3.53
2019-03-08T07:17:31.966Z,3.57
2019-03-08T07:23:41.091Z,2.60
2019-03-08T07:29:51.544Z,3.10
2019-03-08T07:36:07.383Z,4.10
2019-03-08T07:42:29.775Z,3.57
2019-03-08T07:48:45.232Z,3.90
2019-03-08T07:54:58.950Z,3.63
2019-03-08T08:01:23.688Z,4.57
2019-03-08T08:07:28.078Z,3.30
2019-03-08T08:13:41.261Z,3.27
2019-03-08T08:20:03.756Z,4.37
2019-03-08T08:26:25.995Z,4.90
2019-03-08T08:32:39.274Z,4.20
2019-03-08T08:38:51.676Z,4.30
2019-03-08T08:45:13.155Z,4.10
2019-03-08T08:51:19.723Z,4.73
2019-03-08T08:57:34.936Z,5.20
2019-03-08T09:03:43.888Z,4.30
2019-03-08T09:09:56.461Z,5.10
2019-03-08T09:16:02.800Z,2.90
2019-03-08T09:22:15.031Z,1.90
2019-03-08T09:28:27.181Z,1.70
2019-03-08T09:34:42.345Z,2.63
2019-03-08T09:40:56.831Z,2.60
2019-03-08T09:47:03.233Z,3.03
2019-03-08T09:53:15.804Z,3.73
2019-03-08T09:59:31.003Z,2.67
2019-03-08T10:05:46.486Z,3.60
2019-03-08T10:12:06.349Z,2.80
2019-03-08T10:18:15.717Z,2.07
2019-03-08T10:24:24.568Z,1.57
2019-03-08T10:30:47.364Z,2.50
2019-03-08T10:36:56.169Z,2.07
2019-03-08T10:43:02.449Z,2.23
2019-03-08T10:49:11.845Z,2.50
2019-03-08T10:55:34.552Z,2.07
2019-03-08T11:01:56.163Z,2.47
2019-03-08T11:08:17.960Z,2.07
2019-03-08T11:14:40.621Z,3.03
2019-03-08T11:21:03.017Z,1.80
2019-03-08T11:27:09.390Z,2.07
2019-03-08T11:33:15.806Z,1.87
2019-03-08T11:39:29.425Z,2.07
2019-03-08T11:45:35.682Z,1.73
2019-03-08T11:51:55.050Z,1.80
2019-03-08T11:58:13.686Z,1.93
2019-03-08T12:04:23.049Z,2.60
2019-03-08T12:10:29.375Z,1.63
2019-03-08T12:16:51.908Z,1.90
2019-03-08T12:23:18.111Z,2.03
2019-03-08T12:29:40.467Z,1.93
2019-03-08T12:35:52.588Z,2.20
2019-03-08T12:42:15.820Z,2.50
2019-03-08T12:48:25.056Z,2.40
2019-03-08T12:54:31.270Z,1.93
2019-03-08T13:00:37.520Z,1.63
2019-03-08T13:06:43.796Z,2.63
2019-03-08T13:12:48.369Z,2.63
2019-03-08T13:18:52.926Z,2.90
2019-03-08T13:24:57.477Z,5.50
2019-03-08T13:31:02.092Z,3.70
2019-03-08T13:37:06.729Z,2.53
2019-03-08T13:43:11.297Z,2.60
2019-03-08T13:49:15.975Z,3.67
2019-03-08T13:55:20.533Z,1.87
2019-03-08T14:01:25.091Z,2.10
2019-03-08T14:07:29.801Z,1.93
2019-03-08T14:13:34.347Z,2.13
2019-03-08T14:19:38.905Z,2.73
2019-03-08T14:25:43.673Z,2.53
2019-03-08T14:31:52.895Z,2.77
2019-03-08T14:37:57.511Z,3.73
2019-03-08T14:44:17.019Z,2.10
2019-03-08T14:50:21.988Z,3.70
2019-03-08T14:56:26.577Z,12.30
2019-03-08T15:02:31.482Z,4.13
2019-03-08T15:08:36.107Z,6.40
2019-03-08T15:14:40.740Z,4.60
2019-03-08T15:20:45.881Z,1.90
2019-03-08T15:26:50.619Z,2.43
2019-03-08T15:32:55.187Z,1.77
2019-03-08T15:38:59.738Z,1.77
2019-03-08T15:45:07.141Z,1.90
2019-03-08T15:51:12.123Z,1.50
2019-03-08T15:57:17.251Z,1.90
2019-03-08T16:03:21.821Z,1.90
2019-03-08T16:09:26.485Z,3.80
2019-03-08T16:15:31.040Z,4.67
2019-03-08T16:21:35.600Z,6.03
2019-03-08T16:27:40.670Z,3.07
2019-03-08T16:33:46.703Z,3.27
2019-03-08T16:39:55.946Z,2.80
2019-03-08T16:46:07.695Z,2.30
2019-03-08T16:52:26.089Z,2.67
2019-03-08T16:58:38.971Z,5.60
2019-03-08T17:04:45.386Z,3.33
2019-03-08T17:11:02.039Z,2.93
2019-03-08T17:17:11.039Z,3.40
2019-03-08T17:23:19.882Z,2.63
2019-03-08T17:29:42.244Z,2.93
2019-03-08T17:35:48.582Z,2.20
2019-03-08T17:41:52.924Z,2.47
2019-03-08T17:47:57.238Z,2.90
2019-03-08T17:54:01.678Z,2.53
2019-03-08T18:00:30.324Z,2.50
2019-03-08T18:06:52.528Z,2.40
2019-03-08T18:12:59.091Z,2.80
2019-03-08T18:19:06.161Z,3.10
2019-03-08T18:25:12.535Z,3.60
2019-03-08T18:31:18.717Z,3.60
2019-03-08T18:37:24.907Z,3.40
2019-03-08T18:43:31.557Z,3.47
2019-03-08T18:49:55.711Z,3.00
2019-03-08T18:56:02.206Z,3.57
2019-03-08T19:02:24.668Z,3.47
2019-03-08T19:08:30.880Z,3.37
2019-03-08T19:14:44.233Z,3.30
2019-03-08T19:20:51.178Z,3.80
2019-03-08T19:27:13.767Z,4.03
2019-03-08T19:33:20.935Z,2.93
2019-03-08T19:39:33.962Z,3.70
2019-03-08T19:45:44.805Z,3.07
2019-03-08T19:51:55.104Z,3.43
2019-03-08T19:58:17.862Z,3.83
2019-03-08T20:04:33.139Z,3.20
2019-03-08T20:10:38.017Z,3.13
2019-03-08T20:16:44.216Z,2.50
2019-03-08T20:22:48.931Z,3.27
2019-03-08T20:28:55.953Z,3.13
2019-03-08T20:35:02.342Z,3.10
2019-03-08T20:41:14.384Z,2.70
2019-03-08T20:47:23.759Z,2.93
2019-03-08T20:53:28.448Z,3.20
2019-03-08T20:59:33.123Z,2.90
2019-03-08T21:05:37.876Z,2.80
2019-03-08T21:11:42.724Z,6.20
2019-03-08T21:17:48.328Z,6.43
2019-03-08T21:23:52.972Z,5.27
2019-03-08T21:29:57.890Z,4.77
2019-03-08T21:36:02.513Z,6.63
2019-03-08T21:42:07.326Z,3.27
2019-03-08T21:48:12.078Z,2.63
2019-03-08T21:54:16.723Z,3.03
2019-03-08T22:00:26.795Z,2.60
2019-03-08T22:06:31.468Z,3.20
2019-03-08T22:12:36.238Z,2.50
2019-03-08T22:18:41.055Z,2.50
2019-03-08T22:24:47.615Z,3.30
2019-03-08T22:30:52.298Z,3.00
2019-03-08T22:36:57.295Z,3.50
2019-03-08T22:43:02.265Z,4.30
2019-03-08T22:49:06.870Z,3.80
2019-03-08T22:55:15.962Z,2.90
2019-03-08T23:01:22.954Z,4.30
2019-03-08T23:07:27.585Z,3.17
2019-03-08T23:13:32.145Z,2.83
2019-03-08T23:19:36.774Z,3.37
2019-03-08T23:25:41.870Z,2.73
2019-03-08T23:32:04.650Z,2.67
2019-03-08T23:38:10.139Z,2.17
2019-03-08T23:44:14.897Z,2.87
2019-03-08T23:50:19.788Z,2.10
2019-03-08T23:56:24.473Z,2.67
